createdAt,value
2018-01-28T00:00:47.274Z,12.00
2018-01-28T00:02:25.143Z,8.00
2018-01-28T00:04:01.600Z,9.75
2018-01-28T00:05:38.080Z,10.25
2018-01-28T00:07:15.852Z,12.50
2018-01-28T00:08:53.165Z,9.75
2018-01-28T00:10:30.063Z,10.00
2018-01-28T00:12:06.850Z,9.00
2018-01-28T00:13:43.334Z,8.75
2018-01-28T00:15:23.195Z,13.00
2018-01-28T00:16:59.985Z,9.50
2018-01-28T00:18:38.868Z,12.50
2018-01-28T00:20:17.682Z,10.00
2018-01-28T00:21:55.530Z,9.00
2018-01-28T00:23:33.679Z,10.00
2018-01-28T00:25:10.155Z,12.25
2018-01-28T00:26:46.654Z,8.50
2018-01-28T00:28:23.667Z,9.00
2018-01-28T00:30:01.731Z,8.25
2018-01-28T00:31:39.086Z,10.75
2018-01-28T00:33:15.528Z,12.00
2018-01-28T00:34:53.079Z,12.00
2018-01-28T00:36:29.718Z,9.50
2018-01-28T00:38:06.915Z,9.25
2018-01-28T00:39:43.315Z,6.50
2018-01-28T00:41:20.273Z,9.50
2018-01-28T00:42:57.918Z,7.50
2018-01-28T00:44:37.909Z,12.25
2018-01-28T00:46:15.965Z,9.50
2018-01-28T00:47:55.265Z,12.00
2018-01-28T00:49:31.965Z,10.75
2018-01-28T00:51:09.361Z,10.75
2018-01-28T00:52:46.067Z,10.25
2018-01-28T00:54:24.263Z,9.00
2018-01-28T00:56:00.651Z,10.50
2018-01-28T00:57:37.168Z,10.75
2018-01-28T00:59:14.153Z,13.00
2018-01-28T01:00:50.650Z,12.50
2018-01-28T01:02:27.987Z,11.25
2018-01-28T01:04:04.561Z,12.00
2018-01-28T01:05:41.518Z,10.75
2018-01-28T01:07:18.074Z,15.50
2018-01-28T01:08:54.640Z,14.25
2018-01-28T01:10:31.311Z,10.75
2018-01-28T01:12:08.490Z,12.75
2018-01-28T01:13:44.950Z,13.00
2018-01-28T01:15:22.359Z,12.50
2018-01-28T01:16:59.058Z,16.25
2018-01-28T01:18:37.006Z,16.75
2018-01-28T01:20:13.583Z,15.50
2018-01-28T01:21:50.035Z,17.00
2018-01-28T01:23:27.363Z,15.50
2018-01-28T01:25:04.270Z,13.00
2018-01-28T01:26:40.848Z,14.50
2018-01-28T01:28:17.286Z,14.25
2018-01-28T01:29:54.119Z,17.75
2018-01-28T01:31:31.696Z,15.00
2018-01-28T01:33:08.078Z,14.50
2018-01-28T01:34:44.460Z,15.75
2018-01-28T01:36:22.078Z,15.75
2018-01-28T01:37:59.029Z,16.75
2018-01-28T01:39:35.614Z,15.25
2018-01-28T01:41:12.919Z,15.25
2018-01-28T01:42:49.436Z,14.50
2018-01-28T01:44:26.661Z,12.50
2018-01-28T01:46:03.479Z,16.00
2018-01-28T01:47:39.975Z,15.50
2018-01-28T01:49:25.439Z,20.25
2018-01-28T01:51:02.327Z,13.00
2018-01-28T01:52:38.821Z,12.75
2018-01-28T01:54:15.483Z,13.00
2018-01-28T01:55:52.179Z,12.00
2018-01-28T01:57:29.386Z,12.75
2018-01-28T01:59:05.841Z,10.50
2018-01-28T02:00:42.231Z,12.00
2018-01-28T02:02:18.752Z,10.00
2018-01-28T02:03:55.716Z,10.50
2018-01-28T02:05:32.227Z,11.75
2018-01-28T02:07:08.734Z,12.50
2018-01-28T02:08:45.218Z,12.75
2018-01-28T02:10:22.252Z,11.25
2018-01-28T02:11:58.814Z,9.50
2018-01-28T02:13:35.470Z,10.00
2018-01-28T02:15:14.432Z,11.00
2018-01-28T02:16:52.170Z,10.00
2018-01-28T02:18:29.256Z,12.00
2018-01-28T02:20:06.064Z,10.50
2018-01-28T02:21:42.778Z,8.25
2018-01-28T02:23:19.621Z,13.00
2018-01-28T02:24:56.922Z,11.50
2018-01-28T02:26:34.618Z,11.75
2018-01-28T02:28:11.203Z,7.75
2018-01-28T02:29:48.211Z,8.50
2018-01-28T02:31:25.365Z,12.50
2018-01-28T02:33:02.552Z,9.00
2018-01-28T02:34:38.902Z,13.75
2018-01-28T02:36:15.826Z,9.00
2018-01-28T02:37:52.153Z,10.25
2018-01-28T02:39:28.576Z,10.00
2018-01-28T02:41:04.950Z,11.50
2018-01-28T02:42:41.790Z,12.75
2018-01-28T02:44:18.243Z,10.00
2018-01-28T02:45:54.635Z,10.00
2018-01-28T02:47:31.056Z,10.00
2018-01-28T02:49:07.882Z,9.75
2018-01-28T02:50:44.242Z,10.00
2018-01-28T02:52:20.717Z,12.00
2018-01-28T02:53:57.171Z,11.50
2018-01-28T02:55:34.216Z,12.75
2018-01-28T02:57:10.620Z,10.75
2018-01-28T02:58:47.018Z,11.75
2018-01-28T03:00:23.463Z,11.50
2018-01-28T03:02:00.476Z,9.00
2018-01-28T03:03:36.913Z,12.00
2018-01-28T03:05:13.352Z,6.75
2018-01-28T03:06:50.004Z,9.75
2018-01-28T03:08:26.857Z,9.50
2018-01-28T03:10:04.482Z,13.00
2018-01-28T03:11:40.907Z,10.50
2018-01-28T03:13:17.282Z,9.00
2018-01-28T03:14:54.022Z,11.00
2018-01-28T03:16:31.258Z,10.00
2018-01-28T03:18:07.638Z,8.25
2018-01-28T03:19:43.961Z,10.00
2018-01-28T03:21:20.760Z,9.75
2018-01-28T03:22:57.204Z,9.50
2018-01-28T03:24:33.492Z,9.00
2018-01-28T03:26:09.937Z,8.50
2018-01-28T03:27:46.871Z,9.00
2018-01-28T03:29:24.037Z,9.00
2018-01-28T03:31:00.523Z,6.00
2018-01-28T03:32:37.691Z,10.00
2018-01-28T03:34:14.527Z,11.50
2018-01-28T03:35:50.998Z,11.75
2018-01-28T03:37:27.522Z,10.00
2018-01-28T03:39:04.003Z,9.00
2018-01-28T03:40:40.896Z,10.50
2018-01-28T03:42:18.080Z,7.00
2018-01-28T03:43:54.586Z,8.25
2018-01-28T03:45:31.541Z,9.00
2018-01-28T03:47:08.392Z,11.75
2018-01-28T03:48:44.788Z,10.25
2018-01-28T03:50:21.427Z,9.50
2018-01-28T03:51:57.795Z,9.25
2018-01-28T03:53:34.199Z,13.00
2018-01-28T03:55:10.949Z,9.00
2018-01-28T03:56:48.139Z,11.75
2018-01-28T03:58:25.917Z,10.00
2018-01-28T04:00:04.976Z,10.75
2018-01-28T04:01:41.678Z,10.00
2018-01-28T04:03:18.685Z,9.00
2018-01-28T04:04:55.665Z,11.00
2018-01-28T04:06:33.078Z,11.75
2018-01-28T04:08:10.019Z,11.00
2018-01-28T04:09:46.366Z,9.25
2018-01-28T04:11:22.677Z,8.50
2018-01-28T04:12:58.995Z,9.75
2018-01-28T04:14:35.372Z,10.50
2018-01-28T04:16:13.362Z,9.00
2018-01-28T04:17:49.925Z,9.50
2018-01-28T04:19:28.909Z,5.75
2018-01-28T04:21:05.385Z,9.50
2018-01-28T04:22:41.760Z,10.00
2018-01-28T04:24:18.564Z,9.75
2018-01-28T04:25:54.927Z,9.00
2018-01-28T04:27:31.278Z,9.00
2018-01-28T04:29:07.696Z,8.75
2018-01-28T04:30:44.697Z,8.00
2018-01-28T04:32:21.115Z,8.00
2018-01-28T04:33:57.422Z,6.00
2018-01-28T04:35:34.950Z,10.25
2018-01-28T04:37:12.515Z,8.25
2018-01-28T04:38:48.802Z,9.00
2018-01-28T04:40:26.450Z,6.75
2018-01-28T04:42:03.595Z,8.50
2018-01-28T04:43:39.958Z,7.00
2018-01-28T04:45:16.616Z,8.25
2018-01-28T04:46:53.136Z,8.25
2018-01-28T04:48:30.305Z,10.50
2018-01-28T04:50:06.745Z,9.00
2018-01-28T04:51:43.653Z,9.50
2018-01-28T04:53:20.126Z,9.00
2018-01-28T04:54:57.308Z,7.50
2018-01-28T04:56:33.740Z,8.00
2018-01-28T04:58:10.583Z,8.50
2018-01-28T04:59:47.119Z,7.00
2018-01-28T05:01:23.627Z,7.75
2018-01-28T05:03:00.002Z,6.75
2018-01-28T05:04:36.821Z,8.75
2018-01-28T05:06:14.271Z,9.00
2018-01-28T05:07:51.013Z,7.25
2018-01-28T05:09:28.856Z,9.00
2018-01-28T05:11:05.254Z,8.50
2018-01-28T05:12:42.256Z,7.75
2018-01-28T05:14:18.666Z,6.50
2018-01-28T05:15:55.116Z,7.75
2018-01-28T05:17:31.499Z,7.75
2018-01-28T05:19:08.330Z,6.00
2018-01-28T05:20:44.851Z,8.75
2018-01-28T05:22:21.679Z,9.00
2018-01-28T05:23:58.171Z,6.50
2018-01-28T05:25:35.936Z,7.25
2018-01-28T05:27:14.036Z,9.00
2018-01-28T05:30:29.642Z,7.00
2018-01-28T05:32:06.083Z,9.00
2018-01-28T05:33:42.496Z,7.00
2018-01-28T05:35:19.313Z,7.75
2018-01-28T05:36:55.637Z,7.75
2018-01-28T05:38:32.930Z,6.75
2018-01-28T05:40:09.348Z,6.25
2018-01-28T05:41:46.124Z,9.00
2018-01-28T05:43:24.221Z,7.00
2018-01-28T05:45:00.816Z,6.75
2018-01-28T05:46:37.548Z,10.00
2018-01-28T05:48:14.498Z,9.00
2018-01-28T05:49:51.176Z,8.50
2018-01-28T05:51:27.486Z,10.00
2018-01-28T05:53:04.068Z,8.75
2018-01-28T05:54:41.032Z,8.75
2018-01-28T05:56:17.286Z,8.00
2018-01-28T05:57:53.756Z,7.00
2018-01-28T05:59:30.193Z,10.00
2018-01-28T06:01:07.487Z,11.00
2018-01-28T06:02:43.928Z,9.50
2018-01-28T06:04:20.172Z,8.50
2018-01-28T06:05:56.729Z,9.00
2018-01-28T06:07:34.218Z,6.75
2018-01-28T06:09:11.232Z,9.75
2018-01-28T06:10:47.573Z,10.00
2018-01-28T06:12:24.459Z,7.00
2018-01-28T06:14:01.296Z,10.00
2018-01-28T06:15:37.681Z,9.00
2018-01-28T06:17:17.015Z,10.25
2018-01-28T06:18:54.352Z,7.75
2018-01-28T06:20:31.053Z,7.75
2018-01-28T06:22:07.435Z,10.00
2018-01-28T06:23:44.513Z,5.50
2018-01-28T06:25:20.906Z,12.50
2018-01-28T06:26:57.839Z,8.00
2018-01-28T06:28:34.161Z,11.75
2018-01-28T06:30:10.494Z,10.50
2018-01-28T06:31:47.126Z,9.25
2018-01-28T06:33:24.182Z,13.00
2018-01-28T06:35:00.940Z,9.75
2018-01-28T06:36:37.243Z,11.00
2018-01-28T06:38:13.521Z,12.50
2018-01-28T06:39:49.867Z,7.75
2018-01-28T06:41:26.302Z,12.00
2018-01-28T06:43:02.665Z,10.25
2018-01-28T06:44:39.099Z,10.00
2018-01-28T06:46:15.860Z,13.75
2018-01-28T06:47:52.205Z,12.25
2018-01-28T06:49:28.536Z,11.75
2018-01-28T06:51:05.184Z,12.75
2018-01-28T06:52:42.173Z,12.00
2018-01-28T06:54:18.535Z,11.25
2018-01-28T06:55:54.841Z,13.25
2018-01-28T06:57:31.468Z,9.50
2018-01-28T06:59:08.538Z,14.25
2018-01-28T07:00:45.427Z,14.00
2018-01-28T07:02:22.204Z,11.25
2018-01-28T07:04:00.047Z,10.50
2018-01-28T07:05:37.385Z,13.75
2018-01-28T07:07:14.376Z,14.00
2018-01-28T07:08:50.654Z,15.00
2018-01-28T07:10:28.517Z,15.75
2018-01-28T07:12:05.193Z,14.00
2018-01-28T07:13:42.432Z,16.00
2018-01-28T07:15:19.628Z,12.75
2018-01-28T07:16:56.563Z,18.75
2018-01-28T07:18:33.016Z,15.00
2018-01-28T07:20:10.464Z,12.25
2018-01-28T07:21:47.569Z,15.00
2018-01-28T07:23:25.173Z,16.00
2018-01-28T07:25:01.599Z,16.00
2018-01-28T07:26:37.974Z,14.25
2018-01-28T07:28:14.318Z,14.75
2018-01-28T07:29:51.041Z,15.00
2018-01-28T07:31:27.886Z,15.50
2018-01-28T07:33:04.202Z,10.75
2018-01-28T07:34:40.515Z,18.25
2018-01-28T07:36:17.274Z,16.75
2018-01-28T07:37:53.558Z,14.50
2018-01-28T07:41:01.812Z,14.75
2018-01-28T07:42:39.037Z,11.75
2018-01-28T07:44:15.388Z,14.50
2018-01-28T07:45:52.017Z,15.25
2018-01-28T07:47:29.017Z,13.25
2018-01-28T07:49:06.293Z,15.25
2018-01-28T07:50:42.672Z,18.50
2018-01-28T07:52:19.281Z,16.00
2018-01-28T07:53:56.525Z,18.75
2018-01-28T07:55:33.331Z,18.00
2018-01-28T07:57:10.645Z,17.00
2018-01-28T07:58:47.838Z,17.50
2018-01-28T08:00:26.448Z,15.00
2018-01-28T08:02:03.467Z,14.00
2018-01-28T08:03:39.872Z,16.50
2018-01-28T08:05:16.988Z,16.75
2018-01-28T08:06:53.765Z,14.75
2018-01-28T08:08:31.086Z,19.00
2018-01-28T08:10:08.382Z,15.75
2018-01-28T08:11:44.865Z,20.25
2018-01-28T08:13:21.559Z,19.25
2018-01-28T08:14:58.191Z,18.50
2018-01-28T08:16:34.985Z,18.50
2018-01-28T08:18:12.282Z,19.00
2018-01-28T08:19:48.928Z,19.75
2018-01-28T08:21:26.520Z,20.50
2018-01-28T08:23:03.012Z,19.50
2018-01-28T08:24:39.494Z,17.75
2018-01-28T08:26:16.243Z,21.00
2018-01-28T08:27:53.480Z,20.50
2018-01-28T08:29:29.957Z,20.00
2018-01-28T08:31:06.408Z,24.25
2018-01-28T08:32:42.846Z,19.00
2018-01-28T08:34:19.732Z,16.50
2018-01-28T08:35:56.240Z,19.75
2018-01-28T08:37:33.408Z,21.75
2018-01-28T08:39:10.145Z,18.50
2018-01-28T08:40:47.076Z,18.25
2018-01-28T08:42:25.151Z,20.25
2018-01-28T08:44:01.507Z,18.75
2018-01-28T08:45:37.930Z,20.75
2018-01-28T08:47:14.664Z,17.50
2018-01-28T08:48:52.342Z,17.25
2018-01-28T08:50:28.945Z,21.75
2018-01-28T08:52:06.147Z,24.00
2018-01-28T08:53:42.879Z,23.75
2018-01-28T08:55:20.884Z,22.75
2018-01-28T08:56:57.295Z,20.00
2018-01-28T08:58:33.777Z,18.75
2018-01-28T09:00:10.379Z,22.50
2018-01-28T09:01:47.070Z,21.25
2018-01-28T09:03:23.530Z,17.50
2018-01-28T09:05:00.800Z,22.00
2018-01-28T09:06:38.364Z,19.00
2018-01-28T09:08:15.046Z,15.50
2018-01-28T09:09:51.469Z,21.00
2018-01-28T09:11:28.683Z,19.25
2018-01-28T09:13:05.510Z,23.75
2018-01-28T09:14:42.604Z,20.25
2018-01-28T09:16:19.320Z,20.50
2018-01-28T09:17:55.832Z,21.00
2018-01-28T09:19:34.672Z,22.00
2018-01-28T09:21:11.883Z,19.50
2018-01-28T09:22:48.250Z,22.00
2018-01-28T09:24:24.670Z,21.25
2018-01-28T09:26:02.616Z,18.75
2018-01-28T09:27:39.029Z,19.25
2018-01-28T09:29:16.288Z,20.50
2018-01-28T09:30:53.041Z,22.00
2018-01-28T09:32:29.793Z,20.25
2018-01-28T09:34:06.973Z,20.50
2018-01-28T09:35:46.438Z,19.75
2018-01-28T09:37:23.056Z,22.50
2018-01-28T09:39:00.826Z,20.50
2018-01-28T09:40:38.422Z,19.75
2018-01-28T09:42:14.895Z,21.75
2018-01-28T09:43:52.149Z,20.50
2018-01-28T09:45:29.871Z,22.00
2018-01-28T09:47:06.272Z,21.75
2018-01-28T09:48:43.385Z,18.00
2018-01-28T09:50:19.820Z,22.50
2018-01-28T09:51:56.512Z,19.50
2018-01-28T09:53:34.058Z,18.00
2018-01-28T09:55:11.326Z,18.50
2018-01-28T09:56:48.172Z,20.75
2018-01-28T09:58:25.231Z,17.25
2018-01-28T10:00:01.581Z,24.50
2018-01-28T10:01:39.163Z,21.00
2018-01-28T10:03:15.625Z,20.00
2018-01-28T10:04:52.393Z,20.00
2018-01-28T10:06:29.536Z,21.25
2018-01-28T10:08:06.039Z,22.00
2018-01-28T10:09:42.384Z,19.75
2018-01-28T10:11:19.172Z,17.25
2018-01-28T10:12:55.856Z,20.50
2018-01-28T10:14:32.442Z,25.00
2018-01-28T10:16:10.573Z,18.00
2018-01-28T10:17:47.544Z,19.50
2018-01-28T10:19:24.173Z,20.75
2018-01-28T10:21:00.845Z,23.00
2018-01-28T10:22:38.364Z,26.50
2018-01-28T10:24:15.324Z,19.00
2018-01-28T10:25:52.872Z,21.25
2018-01-28T10:27:29.498Z,22.00
2018-01-28T10:29:06.018Z,20.50
2018-01-28T10:30:43.684Z,20.25
2018-01-28T10:32:20.168Z,18.00
2018-01-28T10:33:56.748Z,24.75
2018-01-28T10:35:40.082Z,22.00
2018-01-28T10:37:17.676Z,20.75
2018-01-28T10:38:54.832Z,22.00
2018-01-28T10:40:33.090Z,21.00
2018-01-28T10:42:09.686Z,21.75
2018-01-28T10:43:47.438Z,21.75
2018-01-28T10:47:33.408Z,22.50
2018-01-28T10:49:11.405Z,23.50
2018-01-28T10:50:47.798Z,20.50
2018-01-28T10:52:24.282Z,24.00
2018-01-28T10:54:00.948Z,22.75
2018-01-28T10:55:40.851Z,23.25
2018-01-28T10:57:18.196Z,24.75
2018-01-28T10:58:54.789Z,21.75
2018-01-28T11:00:31.314Z,24.75
2018-01-28T11:02:08.767Z,24.25
2018-01-28T11:03:45.254Z,25.25
2018-01-28T11:05:21.619Z,23.25
2018-01-28T11:06:58.037Z,21.75
2018-01-28T11:08:34.980Z,23.25
2018-01-28T11:10:11.389Z,17.00
2018-01-28T11:11:47.855Z,22.00
2018-01-28T11:13:24.521Z,21.00
2018-01-28T11:15:01.416Z,24.50
2018-01-28T11:16:39.146Z,26.00
2018-01-28T11:18:16.640Z,23.00
2018-01-28T11:19:53.194Z,27.25
2018-01-28T11:21:29.976Z,25.00
2018-01-28T11:23:06.807Z,22.00
2018-01-28T11:24:43.496Z,25.25
2018-01-28T11:26:20.820Z,22.25
2018-01-28T11:27:57.584Z,27.25
2018-01-28T11:29:34.206Z,23.75
2018-01-28T11:31:11.146Z,25.50
2018-01-28T11:32:47.974Z,29.25
2018-01-28T11:34:24.942Z,22.25
2018-01-28T11:36:01.503Z,26.50
2018-01-28T11:37:38.837Z,24.00
2018-01-28T11:39:15.693Z,23.00
2018-01-28T11:40:53.597Z,22.00
2018-01-28T11:42:31.231Z,24.00
2018-01-28T11:44:07.672Z,24.50
2018-01-28T11:45:44.409Z,25.00
2018-01-28T11:47:21.340Z,21.75
2018-01-28T11:48:58.744Z,20.25
2018-01-28T11:50:36.119Z,21.00
2018-01-28T11:52:12.997Z,17.25
2018-01-28T11:53:50.547Z,23.00
2018-01-28T11:55:27.193Z,19.25
2018-01-28T11:57:04.659Z,20.00
2018-01-28T11:58:41.557Z,20.75
2018-01-28T12:00:20.951Z,19.00
2018-01-28T12:01:57.609Z,20.25
2018-01-28T12:03:34.430Z,20.00
2018-01-28T12:05:11.248Z,20.00
2018-01-28T12:06:47.637Z,21.50
2018-01-28T12:08:24.135Z,22.50
2018-01-28T12:10:01.194Z,22.50
2018-01-28T12:11:38.150Z,27.75
2018-01-28T12:13:14.720Z,20.00
2018-01-28T12:14:51.228Z,19.00
2018-01-28T12:16:28.188Z,19.50
2018-01-28T12:19:36.556Z,21.50
2018-01-28T12:21:13.127Z,21.00
2018-01-28T12:22:49.861Z,19.25
2018-01-28T12:24:26.635Z,18.00
2018-01-28T12:26:03.128Z,15.25
2018-01-28T12:27:40.474Z,20.25
2018-01-28T12:29:17.130Z,18.00
2018-01-28T12:30:54.079Z,18.75
2018-01-28T12:32:30.725Z,18.25
2018-01-28T12:34:07.720Z,19.00
2018-01-28T12:35:44.270Z,19.50
2018-01-28T12:37:21.050Z,21.25
2018-01-28T12:38:57.511Z,22.75
2018-01-28T12:40:34.257Z,20.50
2018-01-28T12:42:10.694Z,20.00
2018-01-28T12:43:47.422Z,17.75
2018-01-28T12:45:23.832Z,19.75
2018-01-28T12:47:03.027Z,18.00
2018-01-28T12:48:39.592Z,17.00
2018-01-28T12:50:16.410Z,19.00
2018-01-28T12:51:53.020Z,16.75
2018-01-28T12:53:29.656Z,15.50
2018-01-28T12:55:06.844Z,17.50
2018-01-28T12:56:44.184Z,17.00
2018-01-28T12:58:20.737Z,17.25
2018-01-28T12:59:58.198Z,13.50
2018-01-28T13:01:34.741Z,16.00
2018-01-28T13:03:29.477Z,15.00
2018-01-28T13:05:06.240Z,21.00
2018-01-28T13:06:43.694Z,18.75
2018-01-28T13:08:21.087Z,16.00
2018-01-28T13:09:57.613Z,19.00
2018-01-28T13:11:34.258Z,19.25
2018-01-28T13:13:11.560Z,15.00
2018-01-28T13:14:48.518Z,17.50
2018-01-28T13:16:25.027Z,14.00
2018-01-28T13:18:01.673Z,16.00
2018-01-28T13:19:38.549Z,16.75
2018-01-28T13:21:15.527Z,14.00
2018-01-28T13:22:52.177Z,17.25
2018-01-28T13:24:28.870Z,16.50
2018-01-28T13:26:06.924Z,15.00
2018-01-28T13:27:46.175Z,15.00
2018-01-28T13:29:22.843Z,18.25
2018-01-28T13:30:59.331Z,14.00
2018-01-28T13:32:36.150Z,14.75
2018-01-28T13:34:13.382Z,17.50
2018-01-28T13:35:50.058Z,15.75
2018-01-28T13:37:26.536Z,16.50
2018-01-28T13:39:03.058Z,12.00
2018-01-28T13:40:40.018Z,14.75
2018-01-28T13:42:17.291Z,14.25
2018-01-28T13:43:54.674Z,14.00
2018-01-28T13:45:32.046Z,12.25
2018-01-28T13:47:09.750Z,13.50
2018-01-28T13:48:46.339Z,14.00
2018-01-28T13:50:23.613Z,12.50
2018-01-28T13:52:00.210Z,15.00
2018-01-28T13:53:37.031Z,13.75
2018-01-28T13:55:13.841Z,14.75
2018-01-28T13:56:50.382Z,14.00
2018-01-28T13:58:27.141Z,12.25
2018-01-28T14:00:05.942Z,13.00
2018-01-28T14:01:42.481Z,13.00
2018-01-28T14:03:18.990Z,13.00
2018-01-28T14:04:55.537Z,12.75
2018-01-28T14:06:32.464Z,14.00
2018-01-28T14:08:08.928Z,13.75
2018-01-28T14:09:45.367Z,11.75
2018-01-28T14:11:23.500Z,13.50
2018-01-28T14:13:00.390Z,12.50
2018-01-28T14:14:37.758Z,14.00
2018-01-28T14:16:14.450Z,15.50
2018-01-28T14:17:52.029Z,12.50
2018-01-28T14:19:28.555Z,14.75
2018-01-28T14:21:05.061Z,14.75
2018-01-28T14:22:41.797Z,12.25
2018-01-28T14:24:18.330Z,15.75
2018-01-28T14:25:55.255Z,17.25
2018-01-28T14:27:31.833Z,40.25
2018-01-28T14:29:08.209Z,12.25
2018-01-28T14:30:44.723Z,14.00
2018-01-28T14:32:21.978Z,12.00
2018-01-28T14:33:59.576Z,13.75
2018-01-28T14:35:36.662Z,13.75
2018-01-28T14:37:13.189Z,14.00
2018-01-28T14:38:50.607Z,16.25
2018-01-28T14:40:34.613Z,14.50
2018-01-28T14:44:28.375Z,11.75
2018-01-28T14:46:05.827Z,13.50
2018-01-28T14:47:43.951Z,14.50
2018-01-28T14:49:20.745Z,13.00
2018-01-28T14:50:57.662Z,15.00
2018-01-28T14:52:34.258Z,13.00
2018-01-28T14:54:11.692Z,13.50
2018-01-28T14:55:49.949Z,13.00
2018-01-28T14:57:27.712Z,15.50
2018-01-28T14:59:04.274Z,14.00
2018-01-28T15:00:40.725Z,14.00
2018-01-28T15:02:17.361Z,14.00
2018-01-28T15:03:54.299Z,13.25
2018-01-28T15:05:31.024Z,14.25
2018-01-28T15:07:07.709Z,20.25
2018-01-28T15:08:44.308Z,14.00
2018-01-28T15:10:22.095Z,15.50
2018-01-28T15:11:58.763Z,11.75
2018-01-28T15:13:36.172Z,18.50
2018-01-28T15:15:15.689Z,15.25
2018-01-28T15:16:52.890Z,16.75
2018-01-28T15:18:29.687Z,14.00
2018-01-28T15:20:06.421Z,17.25
2018-01-28T15:21:42.954Z,12.75
2018-01-28T15:23:19.935Z,14.00
2018-01-28T15:24:57.295Z,12.50
2018-01-28T15:26:34.014Z,16.00
2018-01-28T15:28:11.330Z,14.25
2018-01-28T15:29:48.175Z,16.00
2018-01-28T15:31:24.717Z,17.00
2018-01-28T15:33:01.353Z,15.00
2018-01-28T15:34:38.130Z,15.25
2018-01-28T15:36:15.185Z,15.75
2018-01-28T15:37:52.330Z,17.75
2018-01-28T15:39:29.159Z,17.25
2018-01-28T15:41:05.698Z,16.00
2018-01-28T15:42:42.765Z,14.75
2018-01-28T15:44:19.444Z,14.50
2018-01-28T15:45:55.999Z,14.75
2018-01-28T15:47:32.758Z,15.00
2018-01-28T15:49:09.594Z,17.00
2018-01-28T15:50:46.404Z,15.00
2018-01-28T15:52:24.269Z,14.75
2018-01-28T15:54:00.853Z,13.50
2018-01-28T15:55:38.314Z,16.50
2018-01-28T15:57:15.773Z,10.25
2018-01-28T15:58:52.247Z,14.00
2018-01-28T16:00:28.655Z,13.25
2018-01-28T16:02:05.718Z,16.75
2018-01-28T16:03:42.305Z,14.00
2018-01-28T16:05:20.566Z,14.75
2018-01-28T16:06:57.207Z,16.00
2018-01-28T16:08:35.310Z,14.25
2018-01-28T16:10:11.737Z,16.50
2018-01-28T16:11:49.257Z,11.00
2018-01-28T16:13:25.855Z,33.50
2018-01-28T16:15:03.993Z,14.00
2018-01-28T16:16:40.546Z,16.50
2018-01-28T16:18:17.014Z,14.25
2018-01-28T16:19:53.460Z,14.00
2018-01-28T16:21:30.534Z,14.50
2018-01-28T16:23:07.064Z,15.75
2018-01-28T16:24:43.673Z,20.75
2018-01-28T16:26:20.302Z,18.75
2018-01-28T16:27:57.176Z,15.00
2018-01-28T16:29:33.836Z,17.00
2018-01-28T16:31:10.482Z,16.75
2018-01-28T16:32:46.947Z,16.00
2018-01-28T16:34:25.424Z,12.25
2018-01-28T16:36:04.900Z,17.00
2018-01-28T16:37:41.481Z,16.00
2018-01-28T16:39:17.878Z,14.75
2018-01-28T16:40:54.488Z,14.25
2018-01-28T16:42:31.069Z,15.00
2018-01-28T16:44:07.662Z,16.25
2018-01-28T16:45:44.265Z,15.25
2018-01-28T16:47:21.290Z,18.25
2018-01-28T16:48:57.873Z,16.00
2018-01-28T16:50:34.691Z,13.00
2018-01-28T16:52:11.271Z,17.75
2018-01-28T16:53:52.090Z,19.25
2018-01-28T16:55:28.991Z,17.25
2018-01-28T16:57:05.645Z,15.75
2018-01-28T16:58:42.396Z,20.00
2018-01-28T17:00:20.077Z,18.50
2018-01-28T17:01:57.913Z,17.75
2018-01-28T17:03:34.592Z,17.00
2018-01-28T17:05:11.340Z,17.00
2018-01-28T17:06:48.311Z,17.50
2018-01-28T17:08:25.581Z,33.50
2018-01-28T17:10:02.173Z,17.00
2018-01-28T17:11:38.937Z,16.50
2018-01-28T17:13:15.905Z,16.75
2018-01-28T17:14:52.519Z,15.75
2018-01-28T17:16:29.717Z,21.25
2018-01-28T17:18:06.162Z,15.00
2018-01-28T17:19:43.031Z,16.75
2018-01-28T17:21:19.585Z,19.25
2018-01-28T17:22:57.025Z,15.00
2018-01-28T17:24:36.446Z,21.00
2018-01-28T17:26:13.065Z,19.25
2018-01-28T17:27:50.954Z,19.50
2018-01-28T17:29:27.764Z,19.50
2018-01-28T17:31:05.103Z,19.25
2018-01-28T17:32:42.968Z,18.50
2018-01-28T17:34:19.576Z,16.75
2018-01-28T17:35:56.868Z,20.50
2018-01-28T17:37:33.533Z,20.50
2018-01-28T17:39:10.538Z,21.00
2018-01-28T17:40:47.253Z,18.75
2018-01-28T17:42:23.862Z,22.25
2018-01-28T17:44:00.617Z,16.25
2018-01-28T17:45:37.803Z,19.25
2018-01-28T17:47:15.461Z,22.00
2018-01-28T17:48:52.549Z,21.50
2018-01-28T17:50:29.374Z,21.00
2018-01-28T17:52:07.422Z,24.25
2018-01-28T17:53:44.019Z,28.75
2018-01-28T17:55:20.651Z,21.25
2018-01-28T17:56:58.324Z,22.50
2018-01-28T17:58:35.273Z,25.00
2018-01-28T18:00:14.354Z,28.00
2018-01-28T18:01:50.805Z,21.25
2018-01-28T18:03:28.104Z,29.25
2018-01-28T18:05:05.221Z,20.25
2018-01-28T18:06:41.761Z,20.75
2018-01-28T18:08:20.632Z,23.00
2018-01-28T18:09:58.261Z,20.50
2018-01-28T18:11:36.916Z,25.50
2018-01-28T18:13:20.592Z,19.75
2018-01-28T18:14:57.106Z,20.25
2018-01-28T18:16:33.711Z,20.00
2018-01-28T18:18:10.477Z,19.00
2018-01-28T18:19:48.518Z,23.50
2018-01-28T18:21:25.013Z,24.50
2018-01-28T18:23:01.374Z,24.50
2018-01-28T18:24:40.506Z,25.25
2018-01-28T18:26:22.588Z,28.25
2018-01-28T18:27:59.784Z,22.75
2018-01-28T18:29:37.169Z,23.25
2018-01-28T18:31:14.509Z,24.00
2018-01-28T18:32:52.243Z,26.50
2018-01-28T18:34:29.295Z,22.50
2018-01-28T18:36:05.819Z,24.25
2018-01-28T18:37:42.740Z,25.25
2018-01-28T18:39:19.381Z,25.00
2018-01-28T18:40:56.005Z,24.25
2018-01-28T18:42:33.379Z,27.00
2018-01-28T18:44:10.279Z,28.50
2018-01-28T18:45:46.832Z,23.75
2018-01-28T18:47:23.438Z,27.00
2018-01-28T18:48:59.875Z,22.25
2018-01-28T18:50:37.056Z,25.25
2018-01-28T18:52:14.317Z,30.75
2018-01-28T18:53:50.852Z,34.25
2018-01-28T18:55:27.236Z,22.75
2018-01-28T18:57:03.891Z,23.50
2018-01-28T18:58:41.055Z,17.25
2018-01-28T19:00:20.218Z,26.00
2018-01-28T19:01:57.102Z,22.50
2018-01-28T19:03:34.900Z,29.00
2018-01-28T19:05:12.834Z,24.75
2018-01-28T19:06:50.905Z,21.50
2018-01-28T19:08:28.835Z,24.75
2018-01-28T19:10:05.858Z,26.00
2018-01-28T19:11:42.827Z,20.50
2018-01-28T19:13:20.658Z,24.00
2018-01-28T19:14:58.099Z,30.25
2018-01-28T19:16:36.033Z,23.00
2018-01-28T19:18:13.750Z,23.25
2018-01-28T19:19:51.462Z,26.00
2018-01-28T19:21:28.647Z,21.00
2018-01-28T19:23:05.202Z,20.00
2018-01-28T19:24:42.243Z,21.00
2018-01-28T19:26:18.879Z,19.75
2018-01-28T19:27:58.330Z,23.50
2018-01-28T19:29:36.527Z,16.75
2018-01-28T19:31:18.664Z,21.75
2018-01-28T19:32:55.308Z,18.25
2018-01-28T19:34:32.287Z,22.75
2018-01-28T19:36:09.561Z,27.00
2018-01-28T19:37:47.888Z,20.75
2018-01-28T19:39:25.389Z,22.00
2018-01-28T19:41:02.609Z,18.00
2018-01-28T19:42:40.708Z,19.00
2018-01-28T19:44:17.489Z,19.75
2018-01-28T19:45:54.424Z,18.75
2018-01-28T19:47:32.481Z,25.00
2018-01-28T19:49:09.040Z,18.00
2018-01-28T19:50:45.610Z,22.25
2018-01-28T19:52:22.822Z,16.25
2018-01-28T19:54:00.682Z,16.00
2018-01-28T19:55:37.452Z,19.00
2018-01-28T19:57:14.074Z,14.25
2018-01-28T19:58:51.015Z,12.75
2018-01-28T20:00:28.021Z,15.50
2018-01-28T20:02:05.435Z,16.00
2018-01-28T20:03:42.012Z,17.50
2018-01-28T20:05:18.508Z,19.50
2018-01-28T20:06:56.079Z,18.00
2018-01-28T20:08:32.700Z,19.75
2018-01-28T20:10:09.633Z,17.50
2018-01-28T20:11:50.936Z,17.75
2018-01-28T20:13:28.482Z,18.50
2018-01-28T20:15:06.598Z,14.25
2018-01-28T20:16:43.369Z,14.50
2018-01-28T20:18:19.912Z,14.00
2018-01-28T20:19:56.725Z,16.75
2018-01-28T20:21:33.340Z,14.00
2018-01-28T20:23:09.906Z,17.50
2018-01-28T20:24:46.497Z,18.00
2018-01-28T20:26:23.305Z,15.00
2018-01-28T20:27:59.868Z,17.50
2018-01-28T20:29:36.881Z,21.25
2018-01-28T20:31:13.831Z,16.75
2018-01-28T20:32:51.430Z,16.25
2018-01-28T20:34:28.705Z,15.50
2018-01-28T20:37:41.098Z,20.75
2018-01-28T20:39:18.040Z,16.75
2018-01-28T20:40:54.798Z,16.25
2018-01-28T20:42:31.516Z,15.25
2018-01-28T20:44:08.195Z,17.00
2018-01-28T20:45:45.629Z,17.00
2018-01-28T20:47:22.732Z,13.50
2018-01-28T20:48:59.497Z,17.25
2018-01-28T20:50:39.065Z,15.00
2018-01-28T20:52:15.870Z,13.75
2018-01-28T20:53:52.501Z,12.75
2018-01-28T20:55:29.037Z,19.00
2018-01-28T20:57:05.671Z,15.00
2018-01-28T20:58:42.849Z,13.00
2018-01-28T21:00:20.491Z,18.25
2018-01-28T21:01:57.077Z,15.75
2018-01-28T21:03:33.649Z,14.25
2018-01-28T21:05:10.644Z,14.25
2018-01-28T21:06:47.895Z,15.75